Thunder radar more information blitzortung!


Rain radar more information rain snow radar


Equipment we use:

Davis VP2

Weather Display

BareMetal


Weather Underground History page Text

Daily Summary for April 25, 2018 Units:  Metric    English   Both
« Previous Day
Next Day »
Daily Weekly Monthly Yearly Custom
  Current: High: Low: Average:
Temperature: -10.2 °C -17.8 °C -12.2 °C -11.6 °C
Dew Point: -13.1 °C -17.8 °C -13.4 °C -13 °C
Humidity: 71 % Humidity % 71 % 83 %
Wind Speed: 17.9 km/h 0 km/h 0 km/h 9.7 km/h
Wind Gust: 17.9 km/h 0 km/h - -
Wind:NW - - WNW
Pressure: 34577.8 hPa 0 hPa 34486.4 hPa -
Precipitation: 0 mm      
Historical Graphs
 
 
Tabular Data for April 25, 2018
Time Temperature Dew Point Pressure Wind Wind Speed Wind Gust Humidity Rainfall Rate (Hourly)
-17.8 °C -17.8 °C 0 hPa Calm     Humidity % 0 mm
00:02 -10.6 °C -13.4 °C 34486.4 hPa WNW 9 km/h 9 km/h 71 % 0 mm
00:07 -10.6 °C -13.3 °C 34486.4 hPa Calm     72 % 0 mm
00:12 -10.7 °C -13.3 °C 34486.4 hPa Calm     73 % 0 mm
00:17 -10.7 °C -13.3 °C 34486.4 hPa Calm     73 % 0 mm
00:22 -10.8 °C -13.3 °C 34496.6 hPa Calm     74 % 0 mm
00:27 -10.9 °C -13.4 °C 34496.6 hPa WNW 12.9 km/h 12.9 km/h 74 % 0 mm
00:32 -10.9 °C -13.3 °C 34496.6 hPa WNW 9 km/h 9 km/h 75 % 0 mm
00:37 -10.9 °C -13.3 °C 34496.6 hPa WNW 10.3 km/h 10.3 km/h 75 % 0 mm
00:43 -10.9 °C -13.4 °C 34496.6 hPa West 12.9 km/h 12.9 km/h 75 % 0 mm
00:48 -10.9 °C -13.2 °C 34496.6 hPa WNW 9 km/h 9 km/h 76 % 0 mm
00:53 -10.9 °C -13.2 °C 34496.6 hPa Calm     76 % 0 mm
00:58 -11 °C -13.3 °C 34496.6 hPa WNW 9 km/h 9 km/h 76 % 0 mm
01:03 -11.1 °C -13.3 °C 34510.1 hPa WNW 6 km/h 6 km/h 76 % 0 mm
01:08 -11.1 °C -13.3 °C 34496.6 hPa WNW 9 km/h 9 km/h 77 % 0 mm
01:13 -11.2 °C -13.3 °C 34510.1 hPa WNW 6 km/h 6 km/h 77 % 0 mm
01:18 -11.2 °C -13.2 °C 34510.1 hPa WNW 6 km/h 6 km/h 78 % 0 mm
01:23 -11.2 °C -13.3 °C 34510.1 hPa WNW 9 km/h 9 km/h 78 % 0 mm
01:28 -11.3 °C -13.2 °C 34510.1 hPa Calm     79 % 0 mm
01:33 -11.3 °C -13.3 °C 34510.1 hPa WNW 9 km/h 9 km/h 79 % 0 mm
01:38 -11.4 °C -13.2 °C 34510.1 hPa Calm     80 % 0 mm
01:43 -11.4 °C -13.2 °C 34510.1 hPa West 10.3 km/h 10.3 km/h 81 % 0 mm
01:48 -11.4 °C -13.2 °C 34510.1 hPa WNW 9 km/h 9 km/h 81 % 0 mm
01:53 -11.4 °C -13.1 °C 34510.1 hPa WNW 6 km/h 6 km/h 82 % 0 mm
01:58 -11.4 °C -13.1 °C 34510.1 hPa Calm     82 % 0 mm
02:03 -11.5 °C -13.1 °C 34510.1 hPa Calm   0.3 km/h 82 % 0 mm
02:08 -11.6 °C -13.1 °C 34510.1 hPa Calm     83 % 0 mm
02:13 -11.6 °C -13 °C 34510.1 hPa Calm     84 % 0 mm
02:18 -11.6 °C -13 °C 34510.1 hPa WNW 9 km/h 9 km/h 84 % 0 mm
02:23 -11.6 °C -12.9 °C 34510.1 hPa West 10.3 km/h 10.3 km/h 85 % 0 mm
02:28 -11.6 °C -12.9 °C 34510.1 hPa WNW 11.9 km/h 11.9 km/h 85 % 0 mm
02:33 -11.6 °C -12.9 °C 34510.1 hPa WNW 9 km/h 9 km/h 85 % 0 mm
02:38 -11.6 °C -12.9 °C 34510.1 hPa WNW 6 km/h 6.4 km/h 85 % 0 mm
02:43 -11.6 °C -13 °C 34520.3 hPa WNW 9 km/h 9 km/h 85 % 0 mm
02:49 -11.6 °C -13 °C 34520.3 hPa WNW 17.9 km/h 17.9 km/h 85 % 0 mm
02:54 -11.7 °C -12.9 °C 34520.3 hPa WNW 11.9 km/h 11.9 km/h 86 % 0 mm
02:59 -11.6 °C -12.9 °C 34520.3 hPa WNW 9 km/h 9 km/h 86 % 0 mm
03:04 -11.6 °C -12.9 °C 34520.3 hPa WNW 15.6 km/h 15.6 km/h 86 % 0 mm
03:09 -11.6 °C -12.8 °C 34520.3 hPa WNW 17.9 km/h 17.9 km/h 86 % 0 mm
03:14 -11.5 °C -12.8 °C 34520.3 hPa WNW 9 km/h 9 km/h 86 % 0 mm
03:19 -11.5 °C -12.8 °C 34520.3 hPa WNW 17.9 km/h 17.9 km/h 86 % 0 mm
03:24 -11.5 °C -12.7 °C 34533.8 hPa NW 11.9 km/h 11.9 km/h 86 % 0 mm
03:29 -11.5 °C -12.7 °C 34533.8 hPa WNW 15 km/h 15 km/h 86 % 0 mm
03:34 -11.5 °C -12.8 °C 34533.8 hPa NW 11.9 km/h 11.9 km/h 86 % 0 mm
03:39 -11.5 °C -12.8 °C 34533.8 hPa West 17.9 km/h 17.9 km/h 86 % 0 mm
03:44 -11.6 °C -12.8 °C 34533.8 hPa WNW 15 km/h 15 km/h 86 % 0 mm
03:49 -11.6 °C -12.7 °C 34533.8 hPa WNW 9 km/h 9 km/h 87 % 0 mm
03:54 -11.6 °C -12.7 °C 34533.8 hPa WNW 9 km/h 9 km/h 87 % 0 mm
03:59 -11.6 °C -12.8 °C 34533.8 hPa Calm     87 % 0 mm
04:04 -11.7 °C -12.8 °C 34533.8 hPa Calm     87 % 0 mm
04:09 -11.7 °C -12.9 °C 34533.8 hPa WNW 5.1 km/h 5.1 km/h 87 % 0 mm
04:14 -11.8 °C -12.9 °C 34533.8 hPa WNW 6 km/h 6 km/h 87 % 0 mm
04:19 -11.8 °C -12.9 °C 34533.8 hPa WNW 9 km/h 9 km/h 87 % 0 mm
04:24 -11.8 °C -13 °C 34533.8 hPa WNW 9 km/h 9 km/h 87 % 0 mm
04:29 -11.9 °C -12.9 °C 34533.8 hPa WNW 6 km/h 6 km/h 88 % 0 mm
04:34 -12 °C -13 °C 34533.8 hPa WNW 9 km/h 9 km/h 88 % 0 mm
04:39 -12 °C -13.1 °C 34533.8 hPa WNW 9 km/h 9 km/h 88 % 0 mm
04:44 -12 °C -12.9 °C 34533.8 hPa WNW 9 km/h 9 km/h 89 % 0 mm
04:49 -12.1 °C -13 °C 34533.8 hPa WNW 6 km/h 6 km/h 89 % 0 mm
04:54 -12.1 °C -13 °C 34533.8 hPa WNW 9 km/h 9 km/h 89 % 0 mm
04:59 -12.1 °C -12.9 °C 34533.8 hPa WNW 9 km/h 9 km/h 90 % 0 mm
05:05 -12.1 °C -12.9 °C 34533.8 hPa WNW 10.3 km/h 10.3 km/h 90 % 0 mm
05:10 -12.1 °C -12.9 °C 34533.8 hPa WNW 11.9 km/h 11.9 km/h 90 % 0 mm
05:15 -12.1 °C -12.9 °C 34533.8 hPa WNW 11.9 km/h 11.9 km/h 91 % 0 mm
05:20 -12.1 °C -13 °C 34533.8 hPa WNW 9 km/h 9 km/h 90 % 0 mm
05:25 -12.1 °C -13 °C 34533.8 hPa WNW 11.9 km/h 11.9 km/h 90 % 0 mm
05:30 -12.2 °C -13 °C 34544 hPa WNW 9 km/h 9 km/h 90 % 0 mm
05:35 -12.2 °C -12.9 °C 34544 hPa WNW 9 km/h 9 km/h 91 % 0 mm
05:40 -12.2 °C -12.9 °C 34533.8 hPa WNW 17.9 km/h 17.9 km/h 91 % 0 mm
05:45 -12.2 °C -12.9 °C 34533.8 hPa WNW 10.3 km/h 10.3 km/h 91 % 0 mm
05:50 -12.1 °C -12.9 °C 34533.8 hPa WNW 6 km/h 6 km/h 91 % 0 mm
05:55 -12.1 °C -12.9 °C 34533.8 hPa WNW 11.9 km/h 11.9 km/h 91 % 0 mm
06:00 -12.1 °C -12.9 °C 34544 hPa West 15.6 km/h 15.6 km/h 91 % 0 mm
06:05 -12.1 °C -12.9 °C 34544 hPa WNW 11.9 km/h 11.9 km/h 91 % 0 mm
06:10 -12.1 °C -13 °C 34544 hPa WNW 11.9 km/h 11.9 km/h 90 % 0 mm
06:15 -12.1 °C -13 °C 34544 hPa West 11.9 km/h 11.9 km/h 90 % 0 mm
06:20 -12.1 °C -13 °C 34544 hPa West 9 km/h 9 km/h 90 % 0 mm
06:30 -12.2 °C -13 °C 34554.1 hPa WNW 9 km/h 9 km/h 90 % 0 mm
06:35 -12.1 °C -13 °C 34554.1 hPa WNW 9 km/h 9 km/h 90 % 0 mm
06:40 -12.1 °C -13.1 °C 34554.1 hPa West 11.9 km/h 11.9 km/h 89 % 0 mm
06:45 -12.1 °C -13 °C 34554.1 hPa NW 15 km/h 15 km/h 89 % 0 mm
06:50 -12.1 °C -13 °C 34554.1 hPa WNW 12.9 km/h 12.9 km/h 89 % 0 mm
06:55 -12 °C -12.9 °C 34554.1 hPa WNW 11.9 km/h 11.9 km/h 89 % 0 mm
07:00 -11.9 °C -12.9 °C 34554.1 hPa WNW 9 km/h 9 km/h 89 % 0 mm
07:05 -11.8 °C -12.8 °C 34554.1 hPa NW 9 km/h 9 km/h 89 % 0 mm
07:11 -11.8 °C -12.9 °C 34567.7 hPa NW 9 km/h   88 % 0 mm
07:16 -11.8 °C -12.8 °C 34567.7 hPa NW 9 km/h 9 km/h 88 % 0 mm
07:21 -11.7 °C -12.8 °C 34567.7 hPa NW 9 km/h 9 km/h 88 % 0 mm
07:26 -11.6 °C -12.8 °C 34567.7 hPa NNW 9 km/h 9 km/h 87 % 0 mm
07:31 -11.6 °C -12.7 °C 34577.8 hPa Calm     87 % 0 mm
07:36 -11.5 °C -12.8 °C 34577.8 hPa WNW 9 km/h 9 km/h 86 % 0 mm
07:41 -11.4 °C -12.8 °C 34577.8 hPa WNW 9 km/h 9 km/h 85 % 0 mm
07:46 -11.3 °C -12.8 °C 34577.8 hPa NW 17.9 km/h 17.9 km/h 84 % 0 mm
07:51 -11.2 °C -12.8 °C 34577.8 hPa WNW 9 km/h 9 km/h 83 % 0 mm
07:56 -11.1 °C -12.7 °C 34577.8 hPa Calm     83 % 0 mm
08:01 -11.1 °C -12.7 °C 34577.8 hPa WNW 6 km/h 6 km/h 82 % 0 mm
08:06 -11 °C -12.8 °C 34577.8 hPa NW 15.6 km/h 15.6 km/h 80 % 0 mm
08:11 -10.9 °C -12.8 °C 34577.8 hPa WNW 10.3 km/h 10.3 km/h 80 % 0 mm
08:16 -10.8 °C -12.8 °C 34577.8 hPa West 11.9 km/h 11.9 km/h 79 % 0 mm
08:21 -10.8 °C -12.7 °C 34577.8 hPa WNW 9 km/h 9 km/h 79 % 0 mm
08:26 -10.7 °C -12.7 °C 34577.8 hPa West 15 km/h 15 km/h 79 % 0 mm
08:31 -10.7 °C -12.8 °C 34577.8 hPa WNW 11.9 km/h 11.9 km/h 77 % 0 mm
08:36 -10.6 °C -12.8 °C 34577.8 hPa WNW 9 km/h 9 km/h 76 % 0 mm
08:41 -10.4 °C -13 °C 34577.8 hPa WNW 23.8 km/h 23.8 km/h 74 % 0 mm
08:46 -10.4 °C -13.1 °C 34577.8 hPa WNW 23.8 km/h 23.8 km/h 73 % 0 mm
08:51 -10.4 °C -12.9 °C 34577.8 hPa WNW 23.8 km/h 23.8 km/h 74 % 0 mm
08:56 -10.4 °C -13 °C 34577.8 hPa WNW 26.9 km/h 26.9 km/h 73 % 0 mm
09:01 -10.3 °C -12.9 °C 34577.8 hPa WNW 26.9 km/h 26.9 km/h 73 % 0 mm
09:06 -10.2 °C -13.1 °C 34577.8 hPa NW 17.9 km/h 17.9 km/h 71 % 0 mm
Ladner Weather
Compliments of Weather Underground - 1.75 mb

Script developed by  Jim McMurry - jmcmurry@mwt.net Adapted for the template by  Wim van der Kuil - Leuven-Template.eu